North Point, Canada
Current Conditions -  °F | °C
As of 10:00 AM on Sunday 23 Nov 2014 (Local Time) from CYYG Reporting Station
Scattered Clouds Scattered Clouds  
Wind Chill: 26°   Ceiling: Unl
Heat Index: 34°   Visibility: 15mi
Dew Point: 30°   Wind: 10mph
Humidity: 87%   Direction: 250°WSW
Pressure: 29.94"   Gusts: NA
Location:  46.39°N, 62.11°W
Report Text: CYYG 231400Z 25009KT 15SM FEW020 SCT240 01/M01 A2994 RMK SC1CI3 SLP139
Loading
Personal Weather Stations






























Interactive Weather Map New forecast layout! Learn more

10-Day Weather Forecast

Advertisements
Track Severe Weather on mobile